Time,TemperatureF,DewpointF,PressureIn,WindDirection,WindDirectionDegrees,WindSpeedMPH,WindSpeedGustMPH,Humidity,HourlyPrecipIn,Conditions,Clouds,dailyrainin,SoftwareType,DateUTC
2013-01-31 00:00:00,36.5,20.7,29.88,NE,44,0.0,5.0,52,0.00,,,0.00,Weather View 32 v70,2013-01-31 07:00:00,
2013-01-31 00:05:00,36.2,20.8,29.87,NE,44,0.0,3.0,53,0.00,,,0.00,Weather View 32 v70,2013-01-31 07:05:00,
2013-01-31 00:10:00,35.6,20.4,29.88,NE,44,0.0,3.0,54,0.00,,,0.00,Weather View 32 v70,2013-01-31 07:10:00,
2013-01-31 00:20:00,32.9,19.4,29.87,NE,44,0.0,3.0,57,0.00,,,0.00,Weather View 32 v70,2013-01-31 07:20:00,
2013-01-31 00:25:00,32.9,19.4,29.87,NE,44,0.0,3.0,57,0.00,,,0.00,Weather View 32 v70,2013-01-31 07:25:00,
2013-01-31 00:30:00,33.2,19.5,29.87,NE,44,0.0,3.0,57,0.00,,,0.00,Weather View 32 v70,2013-01-31 07:30:00,
2013-01-31 00:35:00,33.0,19.4,29.87,NE,44,0.0,3.0,57,0.00,,,0.00,Weather View 32 v70,2013-01-31 07:35:00,
2013-01-31 00:45:00,32.6,19.5,29.87,NE,44,0.0,3.0,58,0.00,,,0.00,Weather View 32 v70,2013-01-31 07:45:00,
2013-01-31 00:50:00,32.6,19.6,29.87,NE,44,0.0,0.0,58,0.00,,,0.00,Weather View 32 v70,2013-01-31 07:50:00,
2013-01-31 00:55:00,32.1,19.3,29.87,NE,44,0.0,0.0,59,0.00,,,0.00,Weather View 32 v70,2013-01-31 07:55:00,
2013-01-31 01:00:00,31.9,19.2,29.87,NE,44,0.0,0.0,59,0.00,,,0.00,Weather View 32 v70,2013-01-31 08:00:00,
2013-01-31 01:05:00,31.5,19.2,29.88,NE,44,0.0,0.0,60,0.00,,,0.00,Weather View 32 v70,2013-01-31 08:05:00,
2013-01-31 01:10:00,32.1,19.4,29.88,NE,44,0.0,0.0,59,0.00,,,0.00,Weather View 32 v70,2013-01-31 08:10:00,
2013-01-31 01:15:00,32.5,19.4,29.88,NE,44,0.0,0.0,58,0.00,,,0.00,Weather View 32 v70,2013-01-31 08:15:00,
2013-01-31 01:20:00,32.4,19.4,29.88,NE,44,0.0,0.0,58,0.00,,,0.00,Weather View 32 v70,2013-01-31 08:20:00,
2013-01-31 01:25:00,32.4,19.3,29.88,NE,44,0.0,0.0,58,0.00,,,0.00,Weather View 32 v70,2013-01-31 08:25:00,
2013-01-31 01:30:00,32.3,19.2,29.88,NE,44,0.0,0.0,58,0.00,,,0.00,Weather View 32 v70,2013-01-31 08:30:00,
2013-01-31 01:40:00,32.1,19.2,29.88,NE,44,0.0,0.0,59,0.00,,,0.00,Weather View 32 v70,2013-01-31 08:40:00,
2013-01-31 01:45:00,31.9,19.2,29.88,NE,44,0.0,0.0,59,0.00,,,0.00,Weather View 32 v70,2013-01-31 08:45:00,
2013-01-31 01:50:00,32.5,19.2,29.88,NE,44,0.0,0.0,58,0.00,,,0.00,Weather View 32 v70,2013-01-31 08:50:00,
2013-01-31 01:55:00,34.2,20.0,29.88,NE,44,0.0,0.0,56,0.00,,,0.00,Weather View 32 v70,2013-01-31 08:55:00,
2013-01-31 02:00:00,35.0,20.2,29.87,NE,44,0.0,0.0,55,0.00,,,0.00,Weather View 32 v70,2013-01-31 09:00:00,
2013-01-31 02:05:00,35.4,20.4,29.88,NE,44,0.0,0.0,54,0.00,,,0.00,Weather View 32 v70,2013-01-31 09:05:00,
2013-01-31 02:10:00,36.0,20.6,29.88,NE,44,0.0,0.0,53,0.00,,,0.00,Weather View 32 v70,2013-01-31 09:10:00,
2013-01-31 02:15:00,36.6,20.4,29.87,NE,44,0.0,0.0,52,0.00,,,0.00,Weather View 32 v70,2013-01-31 09:15:00,
2013-01-31 02:20:00,37.5,20.8,29.88,NE,44,0.0,0.0,51,0.00,,,0.00,Weather View 32 v70,2013-01-31 09:20:00,
2013-01-31 02:30:00,38.1,20.8,29.88,NE,44,0.0,0.0,49,0.00,,,0.00,Weather View 32 v70,2013-01-31 09:30:00,
2013-01-31 02:35:00,38.2,20.8,29.88,NE,44,0.0,0.0,49,0.00,,,0.00,Weather View 32 v70,2013-01-31 09:35:00,
2013-01-31 02:40:00,38.4,21.1,29.88,NE,44,0.0,0.0,49,0.00,,,0.00,Weather View 32 v70,2013-01-31 09:40:00,
2013-01-31 02:45:00,38.3,21.3,29.89,NE,44,0.0,0.0,50,0.00,,,0.00,Weather View 32 v70,2013-01-31 09:45:00,
2013-01-31 02:50:00,38.0,21.4,29.89,NE,44,0.0,0.0,51,0.00,,,0.00,Weather View 32 v70,2013-01-31 09:50:00,
2013-01-31 02:55:00,37.9,21.3,29.90,NE,44,0.0,0.0,51,0.00,,,0.00,Weather View 32 v70,2013-01-31 09:55:00,
2013-01-31 03:00:00,37.9,21.4,29.90,NE,44,0.0,0.0,51,0.00,,,0.00,Weather View 32 v70,2013-01-31 10:00:00,
2013-01-31 03:05:00,37.9,21.5,29.90,NE,44,0.0,0.0,51,0.00,,,0.00,Weather View 32 v70,2013-01-31 10:05:00,
2013-01-31 03:10:00,38.2,21.3,29.90,NE,44,0.0,0.0,50,0.00,,,0.00,Weather View 32 v70,2013-01-31 10:10:00,
2013-01-31 03:20:00,38.9,21.3,29.89,NE,44,0.0,0.0,49,0.00,,,0.00,Weather View 32 v70,2013-01-31 10:20:00,
2013-01-31 03:25:00,38.9,21.5,29.89,NE,44,0.0,0.0,49,0.00,,,0.00,Weather View 32 v70,2013-01-31 10:25:00,
2013-01-31 03:30:00,38.6,21.6,29.88,NE,44,0.0,0.0,50,0.00,,,0.00,Weather View 32 v70,2013-01-31 10:30:00,
2013-01-31 03:35:00,38.2,21.6,29.88,NE,44,0.0,0.0,51,0.00,,,0.00,Weather View 32 v70,2013-01-31 10:35:00,
2013-01-31 03:40:00,37.9,21.4,29.87,NE,44,0.0,0.0,51,0.00,,,0.00,Weather View 32 v70,2013-01-31 10:40:00,
2013-01-31 03:45:00,37.7,21.3,29.88,NE,44,0.0,0.0,51,0.00,,,0.00,Weather View 32 v70,2013-01-31 10:45:00,
2013-01-31 03:50:00,37.7,20.6,29.89,NE,44,0.0,0.0,50,0.00,,,0.00,Weather View 32 v70,2013-01-31 10:50:00,
2013-01-31 03:55:00,35.8,20.2,29.89,NE,44,0.0,0.0,53,0.00,,,0.00,Weather View 32 v70,2013-01-31 10:55:00,
2013-01-31 04:00:00,34.3,20.0,29.89,NE,44,0.0,0.0,56,0.00,,,0.00,Weather View 32 v70,2013-01-31 11:00:00,
2013-01-31 04:10:00,33.1,19.6,29.90,NE,44,0.0,0.0,57,0.00,,,0.00,Weather View 32 v70,2013-01-31 11:10:00,
2013-01-31 04:15:00,33.0,19.7,29.90,NE,44,0.0,0.0,58,0.00,,,0.00,Weather View 32 v70,2013-01-31 11:15:00,
2013-01-31 04:20:00,33.2,20.3,29.91,NE,44,0.0,0.0,59,0.00,,,0.00,Weather View 32 v70,2013-01-31 11:20:00,
2013-01-31 04:25:00,33.9,20.9,29.91,NE,44,0.0,0.0,59,0.00,,,0.00,Weather View 32 v70,2013-01-31 11:25:00,
2013-01-31 04:30:00,35.2,21.7,29.91,NE,44,0.0,0.0,58,0.00,,,0.00,Weather View 32 v70,2013-01-31 11:30:00,
2013-01-31 04:35:00,36.4,22.0,29.91,NE,44,0.0,1.0,56,0.00,,,0.00,Weather View 32 v70,2013-01-31 11:35:00,
2013-01-31 04:45:00,37.9,22.4,29.91,NE,44,0.0,1.0,53,0.00,,,0.00,Weather View 32 v70,2013-01-31 11:45:00,
2013-01-31 04:50:00,38.2,22.3,29.91,NE,44,0.0,1.0,52,0.00,,,0.00,Weather View 32 v70,2013-01-31 11:50:00,
2013-01-31 04:55:00,38.2,22.0,29.91,NE,44,0.0,1.0,52,0.00,,,0.00,Weather View 32 v70,2013-01-31 11:55:00,
2013-01-31 05:00:00,38.4,22.0,29.91,NE,44,0.0,1.0,51,0.00,,,0.00,Weather View 32 v70,2013-01-31 12:00:00,
2013-01-31 05:05:00,38.4,22.1,29.92,NE,44,0.0,1.0,52,0.00,,,0.00,Weather View 32 v70,2013-01-31 12:05:00,
2013-01-31 05:10:00,38.5,22.0,29.92,NE,44,0.0,1.0,51,0.00,,,0.00,Weather View 32 v70,2013-01-31 12:10:00,
2013-01-31 05:15:00,38.5,22.0,29.93,NE,44,0.0,1.0,51,0.00,,,0.00,Weather View 32 v70,2013-01-31 12:15:00,
2013-01-31 05:25:00,38.8,21.7,29.93,NE,44,0.0,1.0,50,0.00,,,0.00,Weather View 32 v70,2013-01-31 12:25:00,
2013-01-31 05:30:00,38.7,21.8,29.94,NE,44,0.0,1.0,50,0.00,,,0.00,Weather View 32 v70,2013-01-31 12:30:00,
2013-01-31 05:35:00,38.8,21.4,29.93,NE,44,0.0,0.0,49,0.00,,,0.00,Weather View 32 v70,2013-01-31 12:35:00,
2013-01-31 05:40:00,38.8,21.5,29.93,NE,44,0.0,0.0,50,0.00,,,0.00,Weather View 32 v70,2013-01-31 12:40:00,
2013-01-31 05:49:00,38.9,21.1,29.94,NE,44,0.0,0.0,48,0.00,,,0.00,Weather View 32 v70,2013-01-31 12:49:00,
2013-01-31 05:55:00,39.0,21.1,29.94,North,359,0.0,0.0,48,0.00,,,0.00,Weather View 32 v70,2013-01-31 12:55:00,
2013-01-31 06:00:00,39.0,21.0,29.94,North,359,0.0,0.0,48,0.00,,,0.00,Weather View 32 v70,2013-01-31 13:00:00,
2013-01-31 06:10:00,38.8,20.8,29.94,North,359,0.0,0.0,48,0.00,,,0.00,Weather View 32 v70,2013-01-31 13:10:00,
2013-01-31 06:15:00,38.9,21.0,29.94,North,359,0.0,0.0,48,0.00,,,0.00,Weather View 32 v70,2013-01-31 13:15:00,
2013-01-31 06:20:00,38.6,21.0,29.95,North,359,0.0,0.0,49,0.00,,,0.00,Weather View 32 v70,2013-01-31 13:20:00,
2013-01-31 06:25:00,38.6,20.9,29.95,North,359,0.0,0.0,49,0.00,,,0.00,Weather View 32 v70,2013-01-31 13:25:00,
2013-01-31 06:30:00,38.5,20.9,29.95,North,359,0.0,0.0,49,0.00,,,0.00,Weather View 32 v70,2013-01-31 13:30:00,
2013-01-31 06:40:00,38.5,20.8,29.95,North,359,0.0,0.0,49,0.00,,,0.00,Weather View 32 v70,2013-01-31 13:40:00,
2013-01-31 06:45:00,38.6,20.5,29.95,North,359,0.0,0.0,48,0.00,,,0.00,Weather View 32 v70,2013-01-31 13:45:00,
2013-01-31 06:50:00,38.5,20.7,29.95,North,359,0.0,0.0,49,0.00,,,0.00,Weather View 32 v70,2013-01-31 13:50:00,
2013-01-31 07:00:00,37.6,20.7,29.95,North,359,0.0,0.0,50,0.00,,,0.00,Weather View 32 v70,2013-01-31 14:00:00,
2013-01-31 07:05:00,37.0,20.5,29.96,North,359,0.0,0.0,51,0.00,,,0.00,Weather View 32 v70,2013-01-31 14:05:00,
2013-01-31 07:15:00,35.6,20.3,29.98,North,359,0.0,0.0,53,0.00,,,0.00,Weather View 32 v70,2013-01-31 14:15:00,
2013-01-31 07:20:00,35.1,20.5,29.98,North,359,0.0,0.0,55,0.00,,,0.00,Weather View 32 v70,2013-01-31 14:20:00,
2013-01-31 07:25:00,34.4,20.4,29.98,North,359,0.0,0.0,56,0.00,,,0.00,Weather View 32 v70,2013-01-31 14:25:00,
2013-01-31 07:35:00,33.4,20.3,29.99,North,359,0.0,0.0,58,0.00,,,0.00,Weather View 32 v70,2013-01-31 14:35:00,
2013-01-31 07:45:00,32.7,20.4,30.00,North,359,0.0,0.0,60,0.00,,,0.00,Weather View 32 v70,2013-01-31 14:45:00,
2013-01-31 07:50:00,32.5,20.7,30.01,North,359,0.0,0.0,61,0.00,,,0.00,Weather View 32 v70,2013-01-31 14:50:00,
2013-01-31 07:55:00,32.3,20.9,30.01,North,359,0.0,0.0,62,0.00,,,0.00,Weather View 32 v70,2013-01-31 14:55:00,
2013-01-31 08:00:00,31.9,21.1,30.01,North,359,0.0,0.0,64,0.00,,,0.00,Weather View 32 v70,2013-01-31 15:00:00,
2013-01-31 08:05:00,31.5,21.2,30.03,North,359,0.0,0.0,65,0.00,,,0.00,Weather View 32 v70,2013-01-31 15:05:00,
2013-01-31 08:10:00,31.0,21.3,30.03,North,359,0.0,0.0,67,0.00,,,0.00,Weather View 32 v70,2013-01-31 15:10:00,
2013-01-31 08:20:00,30.1,21.6,30.04,North,359,0.0,0.0,70,0.00,,,0.00,Weather View 32 v70,2013-01-31 15:20:00,
2013-01-31 08:25:00,29.5,21.5,30.05,North,359,0.0,0.0,72,0.00,,,0.00,Weather View 32 v70,2013-01-31 15:25:00,
2013-01-31 08:30:00,29.4,22.0,30.05,North,359,0.0,0.0,74,0.00,,,0.00,Weather View 32 v70,2013-01-31 15:30:00,
2013-01-31 08:35:00,29.0,22.1,30.06,North,359,0.0,0.0,75,0.00,,,0.00,Weather View 32 v70,2013-01-31 15:35:00,
2013-01-31 08:40:00,28.5,21.9,30.06,North,359,0.0,0.0,76,0.00,,,0.00,Weather View 32 v70,2013-01-31 15:40:00,
2013-01-31 08:50:00,28.0,22.0,30.07,North,359,0.0,0.0,78,0.00,,,0.00,Weather View 32 v70,2013-01-31 15:50:00,
2013-01-31 08:55:00,28.3,22.2,30.07,North,359,0.0,0.0,78,0.00,,,0.00,Weather View 32 v70,2013-01-31 15:55:00,
2013-01-31 09:00:00,28.7,22.5,30.07,North,359,0.0,0.0,77,0.00,,,0.00,Weather View 32 v70,2013-01-31 16:00:00,
2013-01-31 09:05:00,29.0,22.6,30.07,North,359,0.0,0.0,77,0.00,,,0.00,Weather View 32 v70,2013-01-31 16:05:00,
2013-01-31 09:10:00,29.0,22.7,30.08,North,359,0.0,0.0,77,0.00,,,0.00,Weather View 32 v70,2013-01-31 16:10:00,
2013-01-31 09:15:00,29.3,22.9,30.07,North,359,0.0,0.0,77,0.00,,,0.00,Weather View 32 v70,2013-01-31 16:15:00,
2013-01-31 09:25:00,30.5,23.4,30.07,North,359,0.0,0.0,75,0.00,,,0.00,Weather View 32 v70,2013-01-31 16:25:00,
2013-01-31 09:30:00,31.5,23.9,30.08,North,359,0.0,0.0,73,0.00,,,0.00,Weather View 32 v70,2013-01-31 16:30:00,
2013-01-31 09:35:00,32.2,24.0,30.08,North,359,0.0,0.0,71,0.00,,,0.00,Weather View 32 v70,2013-01-31 16:35:00,
2013-01-31 09:40:00,32.7,24.2,30.08,North,359,0.0,0.0,71,0.00,,,0.00,Weather View 32 v70,2013-01-31 16:40:00,
2013-01-31 09:45:00,33.3,24.4,30.08,North,359,0.0,0.0,70,0.00,,,0.00,Weather View 32 v70,2013-01-31 16:45:00,
2013-01-31 09:51:00,34.0,24.5,30.08,North,359,0.0,0.0,68,0.00,,,0.00,Weather View 32 v70,2013-01-31 16:51:00,
2013-01-31 10:00:00,35.2,25.0,30.08,North,359,0.0,0.0,66,0.00,,,0.00,Weather View 32 v70,2013-01-31 17:00:00,
2013-01-31 10:05:00,36.0,25.2,30.08,North,359,0.0,0.0,65,0.00,,,0.00,Weather View 32 v70,2013-01-31 17:05:00,
2013-01-31 10:10:00,36.8,25.5,30.09,North,359,0.0,0.0,63,0.00,,,0.00,Weather View 32 v70,2013-01-31 17:10:00,
2013-01-31 10:20:00,38.1,25.7,30.09,North,359,0.0,0.0,61,0.00,,,0.00,Weather View 32 v70,2013-01-31 17:20:00,
2013-01-31 10:25:00,38.3,25.9,30.09,North,359,0.0,0.0,61,0.00,,,0.00,Weather View 32 v70,2013-01-31 17:25:00,
2013-01-31 10:30:00,38.7,25.7,30.09,North,359,0.0,0.0,59,0.00,,,0.00,Weather View 32 v70,2013-01-31 17:30:00,
2013-01-31 10:35:00,39.1,25.7,30.09,North,359,0.0,0.0,58,0.00,,,0.00,Weather View 32 v70,2013-01-31 17:35:00,
2013-01-31 10:40:00,39.0,25.5,30.10,North,359,0.0,0.0,58,0.00,,,0.00,Weather View 32 v70,2013-01-31 17:40:00,
2013-01-31 10:45:00,39.4,25.5,30.09,North,359,0.0,0.0,57,0.00,,,0.00,Weather View 32 v70,2013-01-31 17:45:00,
2013-01-31 10:52:00,40.0,24.9,30.09,North,359,0.0,0.0,54,0.00,,,0.00,Weather View 32 v70,2013-01-31 17:52:00,
2013-01-31 11:00:00,40.9,25.0,30.09,North,359,0.0,0.0,53,0.00,,,0.00,Weather View 32 v70,2013-01-31 18:00:00,
2013-01-31 11:05:00,40.9,24.9,30.09,North,359,0.0,0.0,53,0.00,,,0.00,Weather View 32 v70,2013-01-31 18:05:00,
2013-01-31 11:15:00,41.7,24.9,30.09,North,359,0.0,0.0,51,0.00,,,0.00,Weather View 32 v70,2013-01-31 18:15:00,
2013-01-31 11:20:00,42.0,24.0,30.09,North,359,0.0,0.0,49,0.00,,,0.00,Weather View 32 v70,2013-01-31 18:20:00,
2013-01-31 11:30:00,42.8,24.0,30.08,North,359,0.0,0.0,47,0.00,,,0.00,Weather View 32 v70,2013-01-31 18:30:00,
2013-01-31 11:35:00,43.2,23.7,30.08,North,359,0.0,0.0,46,0.00,,,0.00,Weather View 32 v70,2013-01-31 18:35:00,
2013-01-31 11:40:00,43.6,23.2,30.08,North,359,0.0,0.0,44,0.00,,,0.00,Weather View 32 v70,2013-01-31 18:40:00,
2013-01-31 11:45:00,43.9,23.4,30.08,North,359,0.0,0.0,44,0.00,,,0.00,Weather View 32 v70,2013-01-31 18:45:00,
2013-01-31 11:53:00,44.3,22.6,30.08,North,359,0.0,0.0,42,0.00,,,0.00,Weather View 32 v70,2013-01-31 18:53:00,
2013-01-31 12:00:00,44.7,22.6,30.08,North,359,0.0,0.0,41,0.00,,,0.00,Weather View 32 v70,2013-01-31 19:00:00,
2013-01-31 12:05:00,45.1,22.6,30.07,North,359,0.0,0.0,41,0.00,,,0.00,Weather View 32 v70,2013-01-31 19:05:00,
2013-01-31 12:10:00,45.1,21.1,30.08,North,359,0.0,0.0,38,0.00,,,0.00,Weather View 32 v70,2013-01-31 19:10:00,
2013-01-31 12:15:00,44.9,21.4,30.08,North,359,0.0,0.0,39,0.00,,,0.00,Weather View 32 v70,2013-01-31 19:15:00,
2013-01-31 12:25:00,45.3,21.3,30.06,North,359,0.0,0.0,38,0.00,,,0.00,Weather View 32 v70,2013-01-31 19:25:00,
2013-01-31 12:30:00,45.3,21.3,30.07,North,359,0.0,0.0,38,0.00,,,0.00,Weather View 32 v70,2013-01-31 19:30:00,
2013-01-31 12:35:00,45.4,21.1,30.07,North,359,0.0,0.0,38,0.00,,,0.00,Weather View 32 v70,2013-01-31 19:35:00,
2013-01-31 12:40:00,45.4,20.8,30.08,North,359,0.0,0.0,37,0.00,,,0.00,Weather View 32 v70,2013-01-31 19:40:00,
2013-01-31 12:45:00,45.4,20.8,30.07,North,359,0.0,0.0,37,0.00,,,0.00,Weather View 32 v70,2013-01-31 19:45:00,
2013-01-31 12:53:00,45.3,20.6,30.06,North,359,0.0,0.0,37,0.00,,,0.00,Weather View 32 v70,2013-01-31 19:53:00,
2013-01-31 13:00:00,45.4,21.1,30.06,North,359,0.0,0.0,38,0.00,,,0.00,Weather View 32 v70,2013-01-31 20:00:00,
2013-01-31 13:05:00,45.3,20.4,30.06,North,359,0.0,8.0,37,0.00,,,0.00,Weather View 32 v70,2013-01-31 20:05:00,
2013-01-31 13:10:00,45.4,20.9,30.06,North,359,0.0,8.0,37,0.00,,,0.00,Weather View 32 v70,2013-01-31 20:10:00,
2013-01-31 13:20:00,45.6,21.2,30.05,North,359,0.0,8.0,38,0.01,,,0.01,Weather View 32 v70,2013-01-31 20:20:00,
2013-01-31 13:25:00,45.8,21.2,30.06,North,359,0.0,8.0,37,0.01,,,0.01,Weather View 32 v70,2013-01-31 20:25:00,
2013-01-31 13:30:00,45.7,21.1,30.06,North,359,0.0,8.0,37,0.01,,,0.01,Weather View 32 v70,2013-01-31 20:30:00,
2013-01-31 13:35:00,45.6,20.3,30.06,ENE,68,10.0,22.0,36,0.01,,,0.01,Weather View 32 v70,2013-01-31 20:35:00,
2013-01-31 13:45:00,45.6,22.0,30.05,SSE,158,0.0,22.0,39,0.01,,,0.01,Weather View 32 v70,2013-01-31 20:45:00,
2013-01-31 13:50:00,45.5,21.1,30.05,SSE,158,0.0,22.0,38,0.01,,,0.01,Weather View 32 v70,2013-01-31 20:50:00,
2013-01-31 13:55:00,45.6,22.1,30.04,SSE,158,0.0,22.0,39,0.01,,,0.01,Weather View 32 v70,2013-01-31 20:55:00,
2013-01-31 14:00:00,45.9,22.9,30.04,SSE,158,0.0,22.0,40,0.01,,,0.01,Weather View 32 v70,2013-01-31 21:00:00,
2013-01-31 14:05:00,46.0,23.0,30.04,North,359,0.0,22.0,40,0.01,,,0.01,Weather View 32 v70,2013-01-31 21:05:00,
2013-01-31 14:15:00,45.8,23.2,30.05,North,359,0.0,22.0,41,0.01,,,0.01,Weather View 32 v70,2013-01-31 21:15:00,
2013-01-31 14:20:00,45.5,22.8,30.05,North,359,0.0,22.0,40,0.00,,,0.01,Weather View 32 v70,2013-01-31 21:20:00,
2013-01-31 14:25:00,45.3,22.7,30.05,North,359,0.0,22.0,41,0.00,,,0.01,Weather View 32 v70,2013-01-31 21:25:00,
2013-01-31 14:30:00,45.2,21.4,30.05,North,359,0.0,22.0,39,0.00,,,0.01,Weather View 32 v70,2013-01-31 21:30:00,
2013-01-31 14:40:00,45.3,21.0,30.05,North,359,4.0,5.0,38,0.00,,,0.01,Weather View 32 v70,2013-01-31 21:40:00,
2013-01-31 14:45:00,45.2,20.9,30.06,North,359,0.0,5.0,38,0.00,,,0.01,Weather View 32 v70,2013-01-31 21:45:00,
2013-01-31 14:50:00,45.2,21.2,30.05,North,359,0.0,5.0,38,0.00,,,0.01,Weather View 32 v70,2013-01-31 21:50:00,
2013-01-31 15:00:00,45.1,21.8,30.05,North,359,0.0,5.0,39,0.00,,,0.01,Weather View 32 v70,2013-01-31 22:00:00,
2013-01-31 15:05:00,45.2,21.7,30.05,North,359,0.0,5.0,39,0.00,,,0.01,Weather View 32 v70,2013-01-31 22:05:00,
2013-01-31 15:10:00,45.3,21.5,30.05,North,359,0.0,5.0,39,0.00,,,0.01,Weather View 32 v70,2013-01-31 22:10:00,
2013-01-31 15:15:00,45.4,22.3,30.05,North,359,0.0,5.0,40,0.00,,,0.01,Weather View 32 v70,2013-01-31 22:15:00,
2013-01-31 15:25:00,45.8,21.5,30.05,North,359,0.0,5.0,38,0.00,,,0.01,Weather View 32 v70,2013-01-31 22:25:00,
2013-01-31 15:30:00,46.6,22.4,30.05,North,359,0.0,5.0,38,0.00,,,0.01,Weather View 32 v70,2013-01-31 22:30:00,
2013-01-31 15:35:00,46.9,21.0,30.05,North,359,0.0,5.0,36,0.00,,,0.01,Weather View 32 v70,2013-01-31 22:35:00,
2013-01-31 15:40:00,46.9,20.8,30.04,North,359,0.0,5.0,35,0.00,,,0.01,Weather View 32 v70,2013-01-31 22:40:00,
2013-01-31 15:45:00,46.8,21.0,30.04,North,359,0.0,0.0,36,0.00,,,0.01,Weather View 32 v70,2013-01-31 22:45:00,
2013-01-31 15:55:00,47.2,21.4,30.05,North,359,0.0,0.0,36,0.00,,,0.01,Weather View 32 v70,2013-01-31 22:55:00,
2013-01-31 16:05:00,47.1,20.9,30.04,North,359,0.0,0.0,35,0.00,,,0.01,Weather View 32 v70,2013-01-31 23:05:00,
2013-01-31 16:10:00,47.0,20.7,30.03,North,359,0.0,0.0,35,0.00,,,0.01,Weather View 32 v70,2013-01-31 23:10:00,
2013-01-31 16:20:00,46.8,20.9,30.05,North,359,0.0,9.0,36,0.00,,,0.01,Weather View 32 v70,2013-01-31 23:20:00,
2013-01-31 16:25:00,46.8,20.7,30.05,North,359,0.0,9.0,35,0.00,,,0.01,Weather View 32 v70,2013-01-31 23:25:00,
2013-01-31 16:30:00,46.7,20.6,30.04,North,359,0.0,9.0,35,0.00,,,0.01,Weather View 32 v70,2013-01-31 23:30:00,
2013-01-31 16:35:00,46.7,20.5,30.05,North,359,0.0,9.0,35,0.00,,,0.01,Weather View 32 v70,2013-01-31 23:35:00,
2013-01-31 16:40:00,46.5,20.9,30.05,North,359,0.0,9.0,36,0.00,,,0.01,Weather View 32 v70,2013-01-31 23:40:00,
2013-01-31 16:45:00,46.5,20.1,30.05,North,359,0.0,9.0,35,0.00,,,0.01,Weather View 32 v70,2013-01-31 23:45:00,
2013-01-31 16:55:00,46.4,20.3,30.05,North,359,0.0,9.0,35,0.00,,,0.01,Weather View 32 v70,2013-01-31 23:55:00,
2013-01-31 17:05:00,46.2,20.5,30.06,North,359,0.0,9.0,36,0.00,,,0.01,Weather View 32 v70,2013-02-01 00:05:00,
2013-01-31 17:10:00,46.0,20.5,30.06,North,359,0.0,9.0,36,0.00,,,0.01,Weather View 32 v70,2013-02-01 00:10:00,
2013-01-31 17:20:00,45.5,21.8,30.07,North,359,0.0,0.0,39,0.00,,,0.01,Weather View 32 v70,2013-02-01 00:20:00,
2013-01-31 17:25:00,45.3,20.6,30.06,North,359,0.0,0.0,37,0.00,,,0.01,Weather View 32 v70,2013-02-01 00:25:00,
2013-01-31 17:30:00,45.3,20.9,30.07,North,359,0.0,0.0,38,0.00,,,0.01,Weather View 32 v70,2013-02-01 00:30:00,
2013-01-31 17:35:00,45.1,21.3,30.07,North,359,0.0,0.0,39,0.00,,,0.01,Weather View 32 v70,2013-02-01 00:35:00,
2013-01-31 17:40:00,45.1,20.3,30.07,North,359,0.0,0.0,37,0.00,,,0.01,Weather View 32 v70,2013-02-01 00:40:00,
2013-01-31 17:45:00,45.3,19.5,30.07,North,359,0.0,0.0,35,0.00,,,0.01,Weather View 32 v70,2013-02-01 00:45:00,
2013-01-31 17:55:00,44.9,21.5,30.08,North,359,0.0,0.0,39,0.00,,,0.01,Weather View 32 v70,2013-02-01 00:55:00,
2013-01-31 18:00:00,44.5,21.6,30.07,North,359,0.0,0.0,40,0.00,,,0.01,Weather View 32 v70,2013-02-01 01:00:00,
2013-01-31 18:10:00,44.2,21.1,30.08,North,359,0.0,0.0,40,0.00,,,0.01,Weather View 32 v70,2013-02-01 01:10:00,
2013-01-31 18:15:00,44.3,21.4,30.08,North,359,0.0,0.0,40,0.00,,,0.01,Weather View 32 v70,2013-02-01 01:15:00,
2013-01-31 18:20:00,44.0,21.7,30.08,North,359,0.0,0.0,41,0.00,,,0.01,Weather View 32 v70,2013-02-01 01:20:00,
2013-01-31 18:30:00,43.5,22.0,30.08,North,359,0.0,0.0,42,0.00,,,0.01,Weather View 32 v70,2013-02-01 01:30:00,
2013-01-31 18:35:00,43.1,22.3,30.08,North,359,0.0,0.0,43,0.00,,,0.01,Weather View 32 v70,2013-02-01 01:35:00,
2013-01-31 18:40:00,42.8,22.2,30.09,North,359,0.0,0.0,44,0.00,,,0.01,Weather View 32 v70,2013-02-01 01:40:00,
2013-01-31 18:45:00,42.5,22.6,30.09,North,359,0.0,0.0,45,0.00,,,0.01,Weather View 32 v70,2013-02-01 01:45:00,
2013-01-31 18:50:00,42.4,22.7,30.09,North,359,0.0,0.0,45,0.00,,,0.01,Weather View 32 v70,2013-02-01 01:50:00,
2013-01-31 18:57:00,42.1,22.8,30.09,North,359,0.0,0.0,46,0.00,,,0.01,Weather View 32 v70,2013-02-01 01:57:00,
2013-01-31 19:05:00,41.4,23.3,30.09,North,359,0.0,0.0,48,0.00,,,0.01,Weather View 32 v70,2013-02-01 02:05:00,
2013-01-31 19:10:00,41.1,23.7,30.09,North,359,0.0,0.0,50,0.00,,,0.01,Weather View 32 v70,2013-02-01 02:10:00,
2013-01-31 19:15:00,40.7,23.9,30.09,North,359,0.0,0.0,51,0.00,,,0.01,Weather View 32 v70,2013-02-01 02:15:00,
2013-01-31 19:20:00,40.5,24.0,30.10,North,359,0.0,0.0,52,0.00,,,0.01,Weather View 32 v70,2013-02-01 02:20:00,
2013-01-31 19:30:00,40.0,23.4,30.10,North,359,0.0,0.0,51,0.00,,,0.01,Weather View 32 v70,2013-02-01 02:30:00,
2013-01-31 19:35:00,39.9,23.6,30.10,North,359,0.0,0.0,52,0.00,,,0.01,Weather View 32 v70,2013-02-01 02:35:00,
2013-01-31 19:40:00,39.7,23.5,30.10,North,359,0.0,0.0,52,0.00,,,0.01,Weather View 32 v70,2013-02-01 02:40:00,
2013-01-31 19:50:00,39.2,23.2,30.10,North,359,0.0,0.0,52,0.00,,,0.01,Weather View 32 v70,2013-02-01 02:50:00,
2013-01-31 19:55:00,38.9,23.0,30.10,North,359,0.0,0.0,53,0.00,,,0.01,Weather View 32 v70,2013-02-01 02:55:00,
2013-01-31 20:05:00,39.2,23.1,30.11,North,359,0.0,0.0,52,0.00,,,0.01,Weather View 32 v70,2013-02-01 03:05:00,
2013-01-31 20:10:00,39.0,23.2,30.11,North,359,0.0,0.0,53,0.00,,,0.01,Weather View 32 v70,2013-02-01 03:10:00,
2013-01-31 20:20:00,38.7,22.8,30.10,North,359,0.0,0.0,53,0.00,,,0.01,Weather View 32 v70,2013-02-01 03:20:00,
2013-01-31 20:25:00,38.8,23.0,30.10,North,359,0.0,0.0,53,0.00,,,0.01,Weather View 32 v70,2013-02-01 03:25:00,
2013-01-31 20:30:00,38.6,23.3,30.10,North,359,0.0,0.0,54,0.00,,,0.01,Weather View 32 v70,2013-02-01 03:30:00,
2013-01-31 20:40:00,38.4,23.1,30.10,North,359,0.0,0.0,54,0.00,,,0.01,Weather View 32 v70,2013-02-01 03:40:00,
2013-01-31 20:45:00,38.2,23.3,30.11,North,359,0.0,0.0,55,0.00,,,0.01,Weather View 32 v70,2013-02-01 03:45:00,
2013-01-31 20:50:00,38.2,23.1,30.10,North,359,0.0,0.0,54,0.00,,,0.01,Weather View 32 v70,2013-02-01 03:50:00,
2013-01-31 20:55:00,38.2,23.3,30.10,North,359,0.0,0.0,55,0.00,,,0.01,Weather View 32 v70,2013-02-01 03:55:00,
2013-01-31 21:00:00,38.2,23.3,30.10,North,359,0.0,0.0,55,0.00,,,0.01,Weather View 32 v70,2013-02-01 04:00:00,
2013-01-31 21:05:00,38.1,23.5,30.10,North,359,0.0,0.0,55,0.00,,,0.01,Weather View 32 v70,2013-02-01 04:05:00,
2013-01-31 21:15:00,38.1,23.7,30.10,North,359,0.0,0.0,56,0.00,,,0.01,Weather View 32 v70,2013-02-01 04:15:00,
2013-01-31 21:20:00,38.0,23.6,30.10,North,359,0.0,0.0,56,0.00,,,0.01,Weather View 32 v70,2013-02-01 04:20:00,
2013-01-31 21:25:00,38.0,23.8,30.11,North,359,0.0,0.0,56,0.00,,,0.01,Weather View 32 v70,2013-02-01 04:25:00,
2013-01-31 21:35:00,37.7,23.8,30.11,North,359,0.0,0.0,57,0.00,,,0.01,Weather View 32 v70,2013-02-01 04:35:00,
2013-01-31 21:40:00,37.6,23.8,30.11,North,359,0.0,0.0,57,0.00,,,0.01,Weather View 32 v70,2013-02-01 04:40:00,
2013-01-31 21:50:00,37.7,24.1,30.11,North,359,0.0,0.0,58,0.00,,,0.01,Weather View 32 v70,2013-02-01 04:50:00,
2013-01-31 21:55:00,37.3,24.3,30.11,North,359,0.0,0.0,59,0.00,,,0.01,Weather View 32 v70,2013-02-01 04:55:00,
2013-01-31 22:00:00,36.8,24.1,30.11,North,359,0.0,0.0,60,0.00,,,0.01,Weather View 32 v70,2013-02-01 05:00:00,
2013-01-31 22:05:00,36.7,23.9,30.11,North,359,0.0,0.0,60,0.00,,,0.01,Weather View 32 v70,2013-02-01 05:05:00,
2013-01-31 22:10:00,36.2,23.8,30.11,North,359,0.0,0.0,60,0.00,,,0.01,Weather View 32 v70,2013-02-01 05:10:00,
2013-01-31 22:15:00,36.1,23.9,30.11,North,359,0.0,0.0,61,0.00,,,0.01,Weather View 32 v70,2013-02-01 05:15:00,
2013-01-31 22:20:00,36.3,24.2,30.11,North,359,0.0,0.0,61,0.00,,,0.01,Weather View 32 v70,2013-02-01 05:20:00,
2013-01-31 22:30:00,36.8,24.4,30.11,North,359,0.0,0.0,61,0.00,,,0.01,Weather View 32 v70,2013-02-01 05:30:00,
2013-01-31 22:40:00,36.1,24.1,30.11,North,359,0.0,0.0,61,0.00,,,0.01,Weather View 32 v70,2013-02-01 05:40:00,
2013-01-31 22:50:00,35.5,23.8,30.11,North,359,0.0,0.0,62,0.00,,,0.01,Weather View 32 v70,2013-02-01 05:50:00,
2013-01-31 22:55:00,34.6,23.8,30.10,North,359,0.0,0.0,64,0.00,,,0.01,Weather View 32 v70,2013-02-01 05:55:00,
2013-01-31 23:00:00,34.4,23.5,30.10,North,359,0.0,0.0,64,0.00,,,0.01,Weather View 32 v70,2013-02-01 06:00:00,
2013-01-31 23:10:00,33.5,23.5,30.10,North,359,0.0,0.0,66,0.00,,,0.01,Weather View 32 v70,2013-02-01 06:10:00,
2013-01-31 23:15:00,33.1,23.3,30.11,North,359,0.0,0.0,67,0.00,,,0.01,Weather View 32 v70,2013-02-01 06:15:00,
2013-01-31 23:25:00,33.1,23.3,30.10,North,359,0.0,0.0,67,0.00,,,0.01,Weather View 32 v70,2013-02-01 06:25:00,
2013-01-31 23:30:00,33.1,23.3,30.10,North,359,0.0,0.0,67,0.00,,,0.01,Weather View 32 v70,2013-02-01 06:30:00,
2013-01-31 23:40:00,33.3,23.4,30.10,North,359,0.0,0.0,67,0.00,,,0.01,Weather View 32 v70,2013-02-01 06:40:00,
2013-01-31 23:45:00,32.9,23.2,30.10,North,359,0.0,0.0,67,0.00,,,0.01,Weather View 32 v70,2013-02-01 06:45:00,
2013-01-31 23:50:00,32.9,23.2,30.10,North,359,0.0,0.0,67,0.00,,,0.01,Weather View 32 v70,2013-02-01 06:50:00,
2013-01-31 23:55:00,32.9,23.4,30.10,North,359,0.0,0.0,68,0.00,,,0.01,Weather View 32 v70,2013-02-01 06:55:00,